Greater Portsmouth Regional (PMH)

 

Airport Diagram
No Airport Diagram Available
Current Weather/Forecast (MVFR Conditions)
METAR KPMH 071259Z AUTO 29010G16KT 10SM SCT015 BKN028 OVC034 08/05 A3000 RMK AO2
TAF

Airport Information

All Charts
General
Chart Name View
TAKEOFF MINIMUMS

Approaches
Chart Name Download
RNAV (GPS) RWY 18
RNAV (GPS) RWY 36
VOR/DME-A


Airport Statistics
Departures Arrivals Local
All Collected Stats since June 2016: 9 8 2
2021 Stats: 1 1 1
May Stats: 0 0 0

Inbound Traffic (Arrivals) - 0

No inbound traffic.


Outbound Traffic (Departures) - 0

No outbound traffic.


Local Traffic (Pattern) - 0

No local traffic.